Terminal Aerodrome Forecast
Issued by NWS Buffalo, NY

Home | Current Version | Previous Version | Text Only | Print | Product List | Glossary On
Versions: 1 2 3 4 5 6 7 8 9 10 11 12 13 14 15 16 17 18 19 20 21 22 23 24 25 26 27 28 29
471
FTUS41 KBUF 101741
TAFBUF
TAF
KBUF 101741Z 1018/1118 26018G25KT P6SM VCSH OVC015
     FM110300 27015KT P6SM VCSH OVC025
     FM111000 28014KT P6SM BKN025
     FM111500 29015KT P6SM VCSH BKN025=

USA.gov is the U.S. government's official web portal to all federal, state and local government web resources and services.